Time;durP1;ratioP1;P1;durP2;ratioP2;P2;SDS_P1;SDS_P2;PMS_P1;PMS_P2;Temp;Humidity;BMP_temperature;BMP_pressure;BME280_temperature;BME280_humidity;BME280_pressure;Samples;Min_cycle;Max_cycle;Signal;HPM_P1;HPM_P2
2024/03/26 00:01:15;;;;;;;20.00;8.00;;;;;;;-147.86;100.00;-17609.17;105211;1266;60947;-47
2024/03/26 00:03:43;;;;;;;14.30;8.30;;;;;;;-147.86;100.00;-17609.17;105228;1264;60415;-47
2024/03/26 00:06:10;;;;;;;15.90;8.80;;;;;;;-147.86;100.00;-17609.17;105250;1262;73630;-48
2024/03/26 00:08:37;;;;;;;16.10;8.70;;;;;;;-147.86;100.00;-17609.17;105210;1269;64773;-48
2024/03/26 00:11:04;;;;;;;17.90;8.90;;;;;;;-147.86;100.00;-17609.17;105911;1254;72582;-47
2024/03/26 00:13:31;;;;;;;24.00;10.00;;;;;;;-147.86;100.00;-17609.17;105856;1257;60294;-46
2024/03/26 00:15:58;;;;;;;21.40;9.90;;;;;;;-147.86;100.00;-17609.17;105841;1253;60414;-47
2024/03/26 00:18:25;;;;;;;21.40;9.60;;;;;;;-147.86;100.00;-17609.17;105866;1257;73684;-47
2024/03/26 00:20:52;;;;;;;25.50;11.10;;;;;;;-147.86;100.00;-17609.17;105889;1257;64631;-47
2024/03/26 00:23:19;;;;;;;19.40;10.10;;;;;;;-147.86;100.00;-17609.17;105869;1254;72669;-48
2024/03/26 00:25:45;;;;;;;20.70;10.30;;;;;;;-147.86;100.00;-17609.17;105854;1257;60443;-47
2024/03/26 00:28:12;;;;;;;23.40;10.00;;;;;;;-147.86;100.00;-17609.17;105724;1254;60539;-47
2024/03/26 00:30:39;;;;;;;20.90;9.80;;;;;;;-147.86;100.00;-17609.17;105846;1256;73649;-46
2024/03/26 00:33:06;;;;;;;16.20;9.80;;;;;;;-147.86;100.00;-17609.17;105700;1260;65153;-48
2024/03/26 00:35:36;;;;;;;16.40;9.70;;;;;;;-147.86;100.00;-17609.17;105864;1254;72647;-46
2024/03/26 00:38:03;;;;;;;20.20;10.20;;;;;;;-147.86;100.00;-17609.17;105840;1257;60432;-48
2024/03/26 00:40:30;;;;;;;26.60;9.90;;;;;;;-147.86;100.00;-17609.17;105859;1254;60616;-48
2024/03/26 00:42:57;;;;;;;27.50;10.20;;;;;;;-147.86;100.00;-17609.17;105902;1256;73808;-48
2024/03/26 00:45:24;;;;;;;22.00;10.40;;;;;;;-147.86;100.00;-17609.17;105851;1259;64706;-49
2024/03/26 00:47:51;;;;;;;25.70;9.70;;;;;;;-147.86;100.00;-17609.17;105777;1254;72444;-48
2024/03/26 00:50:18;;;;;;;20.60;10.00;;;;;;;-147.86;100.00;-17609.17;105623;1259;60428;-48
2024/03/26 00:52:45;;;;;;;16.60;9.20;;;;;;;-147.86;100.00;-17609.17;105673;1260;60453;-47
2024/03/26 00:55:12;;;;;;;19.80;9.80;;;;;;;-147.86;100.00;-17609.17;105764;1258;73876;-48
2024/03/26 00:57:39;;;;;;;21.80;9.90;;;;;;;-147.86;100.00;-17609.17;105770;1260;64516;-50
2024/03/26 01:00:10;;;;;;;20.00;9.80;;;;;;;-147.86;100.00;-17609.17;105813;1254;72323;-48
2024/03/26 01:02:37;;;;;;;19.50;10.10;;;;;;;-147.86;100.00;-17609.17;105862;1254;60526;-48
2024/03/26 01:05:05;;;;;;;15.20;9.00;;;;;;;-147.86;100.00;-17609.17;105659;1254;60428;-48
2024/03/26 01:07:32;;;;;;;19.40;8.80;;;;;;;-147.86;100.00;-17609.17;105635;1254;73784;-48
2024/03/26 01:09:59;;;;;;;16.50;8.70;;;;;;;-147.86;100.00;-17609.17;105663;1260;64621;-48
2024/03/26 01:12:26;;;;;;;15.30;8.50;;;;;;;-147.86;100.00;-17609.17;105838;1255;73194;-47
2024/03/26 01:14:53;;;;;;;20.70;9.30;;;;;;;-147.86;100.00;-17609.17;105642;1257;60399;-48
2024/03/26 01:17:20;;;;;;;17.20;9.80;;;;;;;-147.86;100.00;-17609.17;105801;1254;60427;-46
2024/03/26 01:19:47;;;;;;;26.30;9.30;;;;;;;-147.86;100.00;-17609.17;105709;1254;73753;-47
2024/03/26 01:22:14;;;;;;;18.80;9.50;;;;;;;-147.86;100.00;-17609.17;105683;1260;65533;-50
2024/03/26 01:24:41;;;;;;;19.20;9.40;;;;;;;-147.86;100.00;-17609.17;105926;1252;72613;-49
2024/03/26 01:27:08;;;;;;;16.40;10.30;;;;;;;-147.86;100.00;-17609.17;105970;1255;60337;-47
2024/03/26 01:29:35;;;;;;;35.00;10.00;;;;;;;-147.86;100.00;-17609.17;105942;1254;60415;-47
2024/03/26 01:32:02;;;;;;;18.40;10.20;;;;;;;-147.86;100.00;-17609.17;105966;1255;73757;-47
2024/03/26 01:34:29;;;;;;;16.40;9.10;;;;;;;-147.86;100.00;-17609.17;105921;1257;64530;-47
2024/03/26 01:36:56;;;;;;;17.60;9.10;;;;;;;-147.86;100.00;-17609.17;105932;1254;72573;-48
2024/03/26 01:39:24;;;;;;;15.80;8.40;;;;;;;-147.86;100.00;-17609.17;105883;1257;60885;-47
2024/03/26 01:41:50;;;;;;;17.40;8.40;;;;;;;-147.86;100.00;-17609.17;105901;1253;60444;-46
2024/03/26 01:44:17;;;;;;;19.70;9.10;;;;;;;-147.86;100.00;-17609.17;105938;1256;73595;-47
2024/03/26 01:46:44;;;;;;;18.20;9.60;;;;;;;-147.86;100.00;-17609.17;105919;1254;66125;-47
2024/03/26 01:49:11;;;;;;;20.50;8.60;;;;;;;-147.86;100.00;-17609.17;105924;1256;72355;-47
2024/03/26 01:51:38;;;;;;;21.50;9.70;;;;;;;-147.86;100.00;-17594.62;105855;1257;61417;-47
2024/03/26 01:54:05;;;;;;;20.00;8.40;;;;;;;-147.86;100.00;-17246.40;105947;1254;60469;-48
2024/03/26 01:56:32;;;;;;;16.10;8.80;;;;;;;-147.86;100.00;-16364.28;105854;1258;73705;-46
2024/03/26 01:58:59;;;;;;;17.10;8.80;;;;;;;-147.86;100.00;-14873.92;105718;1260;64678;-46
2024/03/26 02:01:26;;;;;;;15.70;9.90;;;;;;;-147.86;100.00;-13026.42;105893;1257;72478;-46
2024/03/26 02:03:56;;;;;;;16.00;8.50;;;;;;;-147.86;100.00;-11030.87;105849;1256;61923;-47
2024/03/26 02:06:24;;;;;;;25.10;9.40;;;;;;;-147.86;100.00;-9030.41;105865;1254;60505;-47
2024/03/26 02:08:51;;;;;;;16.90;9.10;;;;;;;-147.86;100.00;-6830.31;105925;1257;73947;-48
2024/03/26 02:11:18;;;;;;;19.80;9.00;;;;;;;-147.86;100.00;-4840.53;105952;1256;65473;-47
2024/03/26 02:13:46;;;;;;;17.30;9.20;;;;;;;-147.86;100.00;-3092.32;105930;1256;72621;-47
2024/03/26 02:16:12;;;;;;;15.70;8.80;;;;;;;-147.86;100.00;-1486.13;105943;1256;60425;-49
2024/03/26 02:18:40;;;;;;;15.30;9.50;;;;;;;-147.86;100.00;-221.29;105855;1252;60399;-49
2024/03/26 02:21:07;;;;;;;21.80;9.40;;;;;;;-147.86;100.00;-140.82;105915;1256;73660;-49
2024/03/26 02:23:34;;;;;;;14.60;8.60;;;;;;;-147.86;100.00;114.84;105969;1255;65375;-47
2024/03/26 02:26:01;;;;;;;18.30;8.50;;;;;;;-147.86;100.00;826.72;105844;1257;72419;-47
2024/03/26 02:28:28;;;;;;;14.80;8.10;;;;;;;-147.86;100.00;1424.42;105917;1257;62240;-47
2024/03/26 02:30:55;;;;;;;18.70;8.80;;;;;;;-147.86;100.00;1084.66;105957;1252;60491;-47
2024/03/26 02:33:22;;;;;;;16.10;9.60;;;;;;;-147.86;100.00;2232.71;105953;1256;73693;-47
2024/03/26 02:35:49;;;;;;;17.10;7.90;;;;;;;-147.86;100.00;3713.23;106073;1256;64656;-47
2024/03/26 02:38:15;;;;;;;15.80;8.60;;;;;;;-147.86;100.00;5272.61;105867;1257;72587;-48
2024/03/26 02:40:43;;;;;;;18.30;8.80;;;;;;;-147.86;100.00;6522.31;105886;1256;61751;-47
2024/03/26 02:43:09;;;;;;;18.80;8.60;;;;;;;-147.86;100.00;7744.82;105908;1255;60421;-47
2024/03/26 02:45:36;;;;;;;13.60;9.20;;;;;;;-147.86;100.00;8893.61;105940;1251;73667;-47
2024/03/26 02:48:06;;;;;;;19.10;9.50;;;;;;;-147.86;100.00;10006.25;105906;1257;65573;-46
2024/03/26 02:50:33;;;;;;;14.90;9.50;;;;;;;-147.86;100.00;10791.97;105982;1257;72586;-49
2024/03/26 02:52:59;;;;;;;19.70;9.50;;;;;;;-147.86;100.00;12197.46;105903;1256;61791;-46
2024/03/26 02:55:26;;;;;;;18.20;10.30;;;;;;;-147.86;100.00;13391.07;105934;1253;60625;-47
2024/03/26 02:57:53;;;;;;;14.80;9.40;;;;;;;-147.86;100.00;14521.67;105915;1256;72660;-47
2024/03/26 03:00:20;;;;;;;13.90;8.90;;;;;;;-147.86;100.00;15695.34;105976;1257;65536;-47
2024/03/26 03:02:47;;;;;;;16.70;9.40;;;;;;;-147.86;100.00;16818.82;105987;1252;72666;-46
2024/03/26 03:05:14;;;;;;;17.00;8.80;;;;;;;-147.86;100.00;17865.96;105878;1256;61879;-48
2024/03/26 03:07:41;;;;;;;23.30;9.10;;;;;;;-147.86;100.00;18741.81;105892;1254;60453;-47
2024/03/26 03:10:08;;;;;;;16.30;8.80;;;;;;;-147.86;100.00;19534.51;105878;1256;73790;-47
2024/03/26 03:12:35;;;;;;;16.80;8.00;;;;;;;-147.86;100.00;20060.01;105958;1254;64494;-47
2024/03/26 03:15:02;;;;;;;16.50;8.50;;;;;;;-147.86;100.00;20775.13;105909;1254;73172;-48
2024/03/26 03:17:29;;;;;;;17.30;9.40;;;;;;;-147.86;100.00;21413.33;105877;1259;60392;-49
2024/03/26 03:19:56;;;;;;;14.50;9.10;;;;;;;-147.86;100.00;22142.34;105891;1256;60825;-48
2024/03/26 03:22:23;;;;;;;14.60;9.50;;;;;;;-147.86;100.00;22812.68;105872;1255;73750;-47
2024/03/26 03:24:49;;;;;;;16.60;8.70;;;;;;;-147.86;100.00;23458.18;105949;1257;63657;-46
2024/03/26 03:27:16;;;;;;;20.10;8.70;;;;;;;-147.86;100.00;24114.32;105928;1257;72561;-48
2024/03/26 03:29:43;;;;;;;13.30;8.90;;;;;;;-147.86;100.00;24733.94;105873;1257;61978;-47
2024/03/26 03:32:10;;;;;;;25.40;10.50;;;;;;;-147.86;100.00;25228.55;105875;1254;60398;-47
2024/03/26 03:34:37;;;;;;;19.50;9.90;;;;;;;-147.86;100.00;25648.38;105901;1256;73621;-49
2024/03/26 03:37:04;;;;;;;17.70;9.50;;;;;;;-147.86;100.00;26088.50;105970;1258;64473;-48
2024/03/26 03:39:31;;;;;;;17.10;9.90;;;;;;;-147.86;100.00;26520.47;105949;1256;72480;-50
2024/03/26 03:41:58;;;;;;;17.40;9.60;;;;;;;-147.86;100.00;26855.42;105861;1255;61976;-49
2024/03/26 03:44:25;;;;;;;15.40;8.50;;;;;;;-147.86;100.00;27106.58;105963;1256;61215;-48
2024/03/26 03:46:52;;;;;;;15.90;9.50;;;;;;;-147.86;100.00;27434.93;105887;1257;74524;-48
2024/03/26 03:49:19;;;;;;;15.80;9.20;;;;;;;-147.86;100.00;27785.93;105898;1256;65259;-47
2024/03/26 03:51:46;;;;;;;13.50;9.10;;;;;;;-147.86;100.00;28122.94;105874;1257;73171;-46
2024/03/26 03:54:14;;;;;;;17.90;10.00;;;;;;;-147.86;100.00;28329.76;105868;1256;62430;-46
2024/03/26 03:56:41;;;;;;;17.40;9.10;;;;;;;-147.86;100.00;28780.66;105858;1254;61254;-48
2024/03/26 03:59:08;;;;;;;14.30;8.60;;;;;;;-147.86;100.00;29060.78;105940;1256;75778;-46
2024/03/26 04:01:34;;;;;;;16.10;9.60;;;;;;;-147.86;100.00;29287.47;105911;1257;64726;-46
2024/03/26 04:04:01;;;;;;;15.70;8.80;;;;;;;-147.86;100.00;29521.19;105925;1256;72364;-47
2024/03/26 04:06:28;;;;;;;18.30;10.00;;;;;;;-147.86;100.00;29673.38;105917;1257;61176;-47
2024/03/26 04:08:55;;;;;;;13.50;9.00;;;;;;;-147.86;100.00;29819.72;105849;1254;61349;-48
2024/03/26 04:11:22;;;;;;;21.80;9.40;;;;;;;-147.86;100.00;29947.32;105865;1256;74356;-48
2024/03/26 04:13:49;;;;;;;18.50;9.70;;;;;;;-147.86;100.00;30007.05;105990;1257;64779;-49
2024/03/26 04:16:16;;;;;;;15.00;8.40;;;;;;;-147.86;100.00;30199.44;105928;1256;72462;-49
2024/03/26 04:18:45;;;;;;;16.20;8.40;;;;;;;-147.86;100.00;30308.74;105879;1257;61630;-48
2024/03/26 04:21:11;;;;;;;22.80;8.30;;;;;;;-147.86;100.00;30427.43;105895;1254;61618;-47
2024/03/26 04:23:39;;;;;;;13.30;8.40;;;;;;;-147.86;100.00;30629.20;105892;1256;74662;-48
2024/03/26 04:26:06;;;;;;;12.80;8.00;;;;;;;-147.86;100.00;30845.01;105913;1254;65558;-49
2024/03/26 04:28:33;;;;;;;15.00;7.60;;;;;;;-147.86;100.00;30911.77;105937;1261;72568;-49
2024/03/26 04:31:00;;;;;;;16.50;8.00;;;;;;;-147.86;100.00;30970.71;105949;1255;62020;-48
2024/03/26 04:33:27;;;;;;;12.80;8.00;;;;;;;-147.86;100.00;31111.24;105840;1257;61234;-48
2024/03/26 04:35:54;;;;;;;11.20;7.60;;;;;;;-147.86;100.00;31213.13;105930;1256;74672;-47
2024/03/26 04:38:20;;;;;;;13.50;8.10;;;;;;;-147.86;100.00;31310.33;105916;1256;63616;-50
2024/03/26 04:40:47;;;;;;;16.20;8.50;;;;;;;-147.86;100.00;31315.80;105942;1261;72740;-49
2024/03/26 04:43:14;;;;;;;24.20;11.90;;;;;;;-147.86;100.00;31305.65;105942;1251;63036;-47
2024/03/26 04:45:41;;;;;;;22.80;12.30;;;;;;;-147.86;100.00;31274.02;105952;1255;61343;-49
2024/03/26 04:48:08;;;;;;;15.40;8.70;;;;;;;-147.86;100.00;31289.25;105995;1257;74393;-52
2024/03/26 04:50:35;;;;;;;17.00;9.60;;;;;;;-147.86;100.00;31333.38;105973;1257;64729;-47
2024/03/26 04:53:02;;;;;;;13.80;9.00;;;;;;;-147.86;100.00;31435.27;105821;1254;72496;-51
2024/03/26 04:55:29;;;;;;;13.10;8.60;;;;;;;-147.86;100.00;31536.78;105665;1255;62400;-47
2024/03/26 04:57:56;;;;;;;12.60;9.20;;;;;;;-147.86;100.00;31585.59;105670;1251;61225;-46
2024/03/26 05:00:22;;;;;;;17.60;8.70;;;;;;;-147.86;100.00;31649.99;105791;1256;74532;-47
2024/03/26 05:02:49;;;;;;;15.70;8.40;;;;;;;-147.86;100.00;31708.95;105703;1254;63637;-50
2024/03/26 05:05:16;;;;;;;15.50;9.30;;;;;;;-147.86;100.00;31798.36;105951;1257;72668;-50
2024/03/26 05:07:43;;;;;;;12.40;8.10;;;;;;;-147.86;100.00;31834.28;105894;1254;61227;-49
2024/03/26 05:10:10;;;;;;;13.50;8.00;;;;;;;-147.86;100.00;31835.05;105888;1254;61340;-52
2024/03/26 05:12:37;;;;;;;15.00;8.40;;;;;;;-147.86;100.00;31699.99;105919;1257;73455;-50
2024/03/26 05:15:05;;;;;;;12.80;7.80;;;;;;;-147.86;100.00;31740.97;105982;1258;64570;-52
2024/03/26 05:17:32;;;;;;;13.40;8.30;;;;;;;-147.86;100.00;31684.77;105949;1253;71374;-48
2024/03/26 05:19:58;;;;;;;14.40;8.80;;;;;;;-147.86;100.00;31717.54;105876;1257;61898;-50
2024/03/26 05:22:25;;;;;;;14.70;8.50;;;;;;;-147.86;100.00;31652.73;105933;1256;61234;-49
2024/03/26 05:24:52;;;;;;;16.00;8.80;;;;;;;-147.86;100.00;31661.32;105957;1257;74632;-48
2024/03/26 05:27:19;;;;;;;17.90;8.60;;;;;;;-147.86;100.00;31683.96;105885;1257;63605;-48
2024/03/26 05:29:45;;;;;;;18.50;8.90;;;;;;;-147.86;100.00;31671.07;105883;1257;72700;-49
2024/03/26 05:32:32;;;;;;;21.40;9.20;;;;;;;-147.86;100.00;30109.68;105923;1257;61230;-50
2024/03/26 05:34:58;;;;;;;15.00;9.30;;;;;;;-147.86;100.00;31548.11;105867;1257;61333;-47
2024/03/26 05:37:25;;;;;;;16.60;8.80;;;;;;;-147.86;100.00;31606.26;105882;1257;74479;-48
2024/03/26 05:39:52;;;;;;;17.60;8.70;;;;;;;-147.86;100.00;31578.15;105880;1256;64623;-49
2024/03/26 05:42:20;;;;;;;13.10;8.10;;;;;;;-147.86;100.00;31456.73;105913;1257;72447;-50
2024/03/26 05:44:46;;;;;;;19.20;8.90;;;;;;;-147.86;100.00;31174.10;105843;1257;61167;-49
2024/03/26 05:47:13;;;;;;;16.40;8.30;;;;;;;-147.86;100.00;30982.03;105834;1253;61346;-49
2024/03/26 05:49:40;;;;;;;23.40;11.30;;;;;;;-147.86;100.00;30739.99;105909;1255;74669;-51
2024/03/26 05:52:07;;;;;;;14.70;9.40;;;;;;;-147.86;100.00;30309.47;105973;1252;64548;-50
2024/03/26 05:54:34;;;;;;;17.00;8.50;;;;;;;-147.86;100.00;29766.63;105926;1258;72470;-48
2024/03/26 05:57:01;;;;;;;17.60;10.10;;;;;;;-147.86;100.00;29214.07;105908;1254;61266;-49
2024/03/26 05:59:28;;;;;;;20.70;10.60;;;;;;;-147.86;100.00;28543.04;105981;1253;61199;-48
2024/03/26 06:01:54;;;;;;;14.30;9.50;;;;;;;-147.86;100.00;28030.07;105875;1256;74842;-49
2024/03/26 06:04:21;;;;;;;20.30;10.10;;;;;;;-147.86;100.00;27458.66;105883;1256;65380;-47
2024/03/26 06:06:48;;;;;;;19.30;9.50;;;;;;;-147.86;100.00;26845.63;105985;1256;72727;-47
2024/03/26 06:09:15;;;;;;;17.70;9.70;;;;;;;-147.86;100.00;26192.54;105924;1256;61811;-50
2024/03/26 06:11:42;;;;;;;19.40;9.10;;;;;;;-147.86;100.00;25604.63;105911;1258;61856;-47
2024/03/26 06:14:09;;;;;;;21.90;9.30;;;;;;;-147.86;100.00;24884.29;105821;1257;74517;-48
2024/03/26 06:16:36;;;;;;;16.00;10.10;;;;;;;-147.86;100.00;23850.02;105863;1254;64555;-51
2024/03/26 06:19:03;;;;;;;19.50;10.00;;;;;;;-147.86;100.00;22862.83;105921;1257;72505;-47
2024/03/26 06:21:30;;;;;;;17.90;9.50;;;;;;;-147.86;100.00;22076.00;105881;1257;61221;-49
2024/03/26 06:23:57;;;;;;;16.80;9.50;;;;;;;-147.86;100.00;21183.04;105902;1254;61342;-49
2024/03/26 06:26:24;;;;;;;18.30;9.70;;;;;;;-147.86;100.00;20347.55;105936;1252;74628;-50
2024/03/26 06:28:51;;;;;;;16.70;10.30;;;;;;;-147.86;100.00;19297.00;105856;1253;65383;-51
2024/03/26 06:31:18;;;;;;;21.10;9.90;;;;;;;-147.86;100.00;17994.16;105888;1255;72427;-48
2024/03/26 06:33:45;;;;;;;21.40;9.60;;;;;;;-147.86;100.00;16728.79;105953;1256;61849;-50
2024/03/26 06:36:12;;;;;;;14.50;9.10;;;;;;;-147.86;100.00;15618.93;105943;1254;61483;-47
2024/03/26 06:38:39;;;;;;;15.90;9.80;;;;;;;-147.86;100.00;14428.93;105907;1256;74446;-51
2024/03/26 06:41:06;;;;;;;17.40;9.80;;;;;;;-147.86;100.00;13378.40;105912;1251;64645;-48
2024/03/26 06:43:33;;;;;;;22.10;9.50;;;;;;;-147.86;100.00;12255.92;105889;1255;71471;-50
2024/03/26 06:46:00;;;;;;;16.40;9.40;;;;;;;-147.86;100.00;11860.98;105951;1251;62987;-49
2024/03/26 06:48:27;;;;;;;17.80;9.40;;;;;;;-147.86;100.00;12156.19;105889;1254;61212;-47
2024/03/26 06:50:54;;;;;;;15.70;9.10;;;;;;;-147.86;100.00;12810.17;105879;1257;76597;-51
2024/03/26 06:53:21;;;;;;;16.40;9.80;;;;;;;-147.86;100.00;13465.98;105933;1254;64630;-50
2024/03/26 06:55:47;;;;;;;19.00;9.80;;;;;;;-147.86;100.00;13862.77;105966;1257;72431;-47
2024/03/26 06:58:14;;;;;;;14.90;10.10;;;;;;;-147.86;100.00;14017.82;105832;1254;61793;-47
2024/03/26 07:00:41;;;;;;;19.10;9.10;;;;;;;-147.86;100.00;14127.81;105881;1254;61330;-50
2024/03/26 07:03:08;;;;;;;17.40;9.90;;;;;;;-147.86;100.00;14433.74;105880;1256;75682;-48
2024/03/26 07:05:36;;;;;;;17.90;10.20;;;;;;;-147.86;100.00;14602.80;105945;1257;65821;-47
2024/03/26 07:08:04;;;;;;;19.10;9.90;;;;;;;-147.86;100.00;14183.02;105960;1254;73789;-50
2024/03/26 07:10:32;;;;;;;23.20;11.80;;;;;;;-147.86;100.00;13898.19;105924;1253;62164;-47
2024/03/26 07:12:58;;;;;;;17.00;9.60;;;;;;;-147.86;100.00;13682.37;105868;1257;61508;-49
2024/03/26 07:15:25;;;;;;;14.50;9.60;;;;;;;-147.86;100.00;13009.31;105882;1254;76026;-49
2024/03/26 07:17:52;;;;;;;19.10;10.70;;;;;;;-147.86;100.00;12190.73;105904;1256;65971;-47
2024/03/26 07:20:19;;;;;;;14.90;9.80;;;;;;;-147.86;100.00;12106.50;105905;1258;73749;-50
2024/03/26 07:22:46;;;;;;;16.00;9.80;;;;;;;-147.86;100.00;11668.97;105911;1254;62362;-49
2024/03/26 07:25:13;;;;;;;17.10;9.60;;;;;;;-147.86;100.00;10085.63;105858;1254;61494;-48
2024/03/26 07:27:41;;;;;;;16.30;9.90;;;;;;;-147.86;100.00;9117.51;105903;1257;74803;-48
2024/03/26 07:30:08;;;;;;;14.40;9.40;;;;;;;-147.86;100.00;8690.56;105980;1257;64798;-49
2024/03/26 07:32:35;;;;;;;15.30;10.00;;;;;;;-147.86;100.00;7700.52;105887;1256;74035;-48
2024/03/26 07:35:03;;;;;;;15.80;10.30;;;;;;;-147.86;100.00;6140.44;105882;1256;61340;-47
2024/03/26 07:37:30;;;;;;;17.30;10.20;;;;;;;-147.86;100.00;4277.89;105927;1252;61247;-50
2024/03/26 07:39:57;;;;;;;16.90;9.30;;;;;;;-147.86;100.00;2112.44;105901;1257;76082;-48
2024/03/26 07:42:24;;;;;;;16.60;9.70;;;;;;;-147.86;100.00;223.15;105898;1253;66083;-49
2024/03/26 07:44:51;;;;;;;16.70;9.40;;;;;;;-147.86;100.00;-1515.31;105914;1254;73974;-48
2024/03/26 07:47:18;;;;;;;18.30;9.90;;;;;;;-147.86;100.00;-1710.31;105940;1254;61513;-47
2024/03/26 07:49:45;;;;;;;16.80;9.50;;;;;;;-147.86;100.00;500.30;105945;1251;61606;-48
2024/03/26 07:52:12;;;;;;;15.30;9.70;;;;;;;-147.86;100.00;294.52;105993;1253;74968;-47
2024/03/26 07:54:39;;;;;;;21.90;11.10;;;;;;;-147.86;100.00;-1084.45;105888;1254;64963;-47
2024/03/26 07:57:07;;;;;;;15.90;9.30;;;;;;;-147.86;100.00;-3874.08;105920;1257;74075;-49
2024/03/26 07:59:34;;;;;;;16.30;9.90;;;;;;;-147.86;100.00;-7714.94;105961;1254;61145;-47
2024/03/26 08:02:02;;;;;;;23.40;9.70;;;;;;;-147.86;100.00;-10918.71;105945;1254;61347;-50
2024/03/26 08:04:29;;;;;;;13.70;9.60;;;;;;;-147.86;100.00;-13633.61;105911;1256;76095;-47
2024/03/26 08:06:56;;;;;;;18.80;10.20;;;;;;;-147.86;100.00;-15255.53;105912;1254;65888;-49
2024/03/26 08:09:24;;;;;;;16.60;8.80;;;;;;;-147.86;100.00;-17127.37;105875;1256;73914;-49
2024/03/26 08:11:50;;;;;;;14.40;9.00;;;;;;;-147.86;100.00;-17609.17;105931;1254;61494;-48
2024/03/26 08:14:17;;;;;;;14.90;9.00;;;;;;;-147.86;100.00;-17609.17;105924;1254;61695;-46
2024/03/26 08:16:44;;;;;;;13.30;8.90;;;;;;;-147.86;100.00;-17609.17;105905;1256;76064;-47
2024/03/26 08:19:12;;;;;;;16.10;9.10;;;;;;;-147.86;100.00;-17609.17;105888;1251;65358;-48
2024/03/26 08:21:39;;;;;;;15.60;9.00;;;;;;;-147.86;100.00;-17609.17;105999;1257;73974;-47
2024/03/26 08:24:06;;;;;;;14.80;8.70;;;;;;;-147.86;100.00;-17609.17;105896;1254;61382;-47
2024/03/26 08:26:33;;;;;;;17.40;9.10;;;;;;;-147.86;100.00;-17609.17;105878;1253;61484;-48
2024/03/26 08:29:00;;;;;;;16.60;9.60;;;;;;;-147.86;100.00;-17609.17;105908;1256;75666;-45
2024/03/26 08:31:29;;;;;;;15.00;7.40;;;;;;;-147.86;100.00;-17609.17;105912;1253;66761;-47
2024/03/26 08:33:56;;;;;;;16.10;7.60;;;;;;;-147.86;100.00;-17609.17;105936;1257;72710;-48
2024/03/26 08:36:23;;;;;;;16.90;8.70;;;;;;;-147.86;100.00;-17609.17;105931;1256;61614;-46
2024/03/26 08:38:51;;;;;;;10.80;7.60;;;;;;;-147.86;100.00;-17609.17;105919;1254;61587;-45
2024/03/26 08:41:18;;;;;;;12.00;7.80;;;;;;;-147.86;100.00;-17609.17;105935;1256;75796;-46
2024/03/26 08:43:45;;;;;;;14.70;7.50;;;;;;;-147.86;100.00;-17609.17;105962;1251;65049;-47
2024/03/26 08:46:11;;;;;;;14.10;8.00;;;;;;;-147.86;100.00;-17609.17;106014;1251;73937;-46
2024/03/26 08:48:38;;;;;;;12.50;7.80;;;;;;;-147.86;100.00;-17609.17;105927;1256;61521;-47
2024/03/26 08:51:06;;;;;;;13.30;7.30;;;;;;;-147.86;100.00;-17609.17;105933;1252;61231;-46
2024/03/26 08:53:33;;;;;;;10.60;6.80;;;;;;;-147.86;100.00;-17609.17;105928;1253;75833;-48
2024/03/26 08:55:59;;;;;;;14.10;7.30;;;;;;;-147.86;100.00;-17609.17;105893;1256;66765;-47
2024/03/26 08:58:41;;;;;;;15.10;7.30;;;;;;;-147.86;100.00;-17609.17;105836;1254;73752;-49
2024/03/26 09:01:08;;;;;;;9.70;7.50;;;;;;;-147.86;100.00;-17609.17;105861;1254;61492;-46
2024/03/26 09:03:36;;;;;;;27.60;8.30;;;;;;;-147.86;100.00;-17609.17;105892;1256;61679;-46
2024/03/26 09:06:03;;;;;;;10.30;7.50;;;;;;;-147.86;100.00;-17609.17;105895;1256;73447;-45
2024/03/26 09:08:30;;;;;;;16.90;8.40;;;;;;;-147.86;100.00;-17609.17;105910;1257;66726;-45
2024/03/26 09:10:57;;;;;;;13.80;7.20;;;;;;;-147.86;100.00;-17609.17;105927;1254;73836;-48
2024/03/26 09:13:25;;;;;;;10.00;6.90;;;;;;;-147.86;100.00;-17609.17;105916;1254;63088;-46
2024/03/26 09:15:52;;;;;;;12.80;6.90;;;;;;;-147.86;100.00;-17609.17;105906;1254;61719;-47
2024/03/26 09:18:19;;;;;;;9.60;6.30;;;;;;;-147.86;100.00;-17609.17;105867;1254;75870;-48
2024/03/26 09:20:46;;;;;;;18.00;6.70;;;;;;;-147.86;100.00;-17609.17;105912;1254;66740;-45
2024/03/26 09:23:13;;;;;;;14.20;7.20;;;;;;;-147.86;100.00;-17609.17;105946;1254;73733;-47
2024/03/26 09:25:41;;;;;;;11.10;6.40;;;;;;;-147.86;100.00;-17609.17;106012;1256;61220;-47
2024/03/26 09:28:09;;;;;;;9.90;6.10;;;;;;;-147.86;100.00;-17609.17;105936;1254;61577;-46
2024/03/26 09:30:36;;;;;;;11.40;7.20;;;;;;;-147.86;100.00;-17609.17;105919;1256;75849;-46
2024/03/26 09:33:03;;;;;;;18.60;7.90;;;;;;;-147.86;100.00;-16769.02;105883;1256;65761;-46
2024/03/26 09:35:30;;;;;;;11.20;7.30;;;;;;;-147.86;100.00;-16818.10;105881;1256;73983;-46
2024/03/26 09:37:57;;;;;;;11.60;7.20;;;;;;;-147.86;100.00;-17609.17;105917;1256;61131;-47
2024/03/26 09:40:24;;;;;;;10.00;6.10;;;;;;;-147.86;100.00;-17609.17;105927;1252;61401;-48
2024/03/26 09:42:51;;;;;;;10.00;6.60;;;;;;;-147.86;100.00;-17609.17;105822;1253;76291;-48
2024/03/26 09:45:19;;;;;;;13.30;6.40;;;;;;;-147.86;100.00;-17608.88;105809;1254;67165;-47
2024/03/26 09:47:48;;;;;;;12.20;6.90;;;;;;;-147.86;100.00;-17608.30;105889;1257;73956;-47
2024/03/26 09:50:17;;;;;;;16.60;8.00;;;;;;;-147.86;100.00;-17609.17;105919;1256;61221;-45
2024/03/26 09:52:46;;;;;;;11.70;6.90;;;;;;;-147.86;100.00;-17609.17;105861;1254;61478;-48
2024/03/26 09:55:13;;;;;;;12.70;7.10;;;;;;;-147.86;100.00;-17609.17;105899;1254;75886;-46
2024/03/26 09:57:41;;;;;;;11.90;7.20;;;;;;;-147.86;100.00;-17609.17;105867;1257;66204;-47
2024/03/26 10:00:08;;;;;;;11.60;6.30;;;;;;;-147.86;100.00;-17609.17;105880;1257;73781;-46
2024/03/26 10:02:37;;;;;;;13.70;6.60;;;;;;;-147.86;100.00;-17609.17;105830;1257;61477;-48
2024/03/26 10:05:06;;;;;;;15.30;7.10;;;;;;;-147.86;100.00;-17609.17;105918;1252;61495;-49
2024/03/26 10:07:33;;;;;;;11.10;6.80;;;;;;;-147.86;100.00;-17609.17;105913;1252;76346;-48
2024/03/26 10:10:01;;;;;;;12.00;7.30;;;;;;;-147.86;100.00;-17609.17;105914;1256;66934;-46
2024/03/26 10:12:29;;;;;;;16.40;6.70;;;;;;;-147.86;100.00;-17609.17;105899;1254;73985;-48
2024/03/26 10:14:59;;;;;;;10.00;6.40;;;;;;;-147.86;100.00;-17609.17;105918;1257;61231;-48
2024/03/26 10:17:27;;;;;;;14.00;6.80;;;;;;;-147.86;100.00;-17609.17;105883;1253;61877;-47
2024/03/26 10:19:56;;;;;;;13.90;6.80;;;;;;;-147.86;100.00;-17609.17;105872;1252;75918;-48
2024/03/26 10:22:22;;;;;;;8.40;6.00;;;;;;;-147.86;100.00;-17609.17;105962;1255;66716;-48
2024/03/26 10:24:50;;;;;;;10.30;6.60;;;;;;;-147.86;100.00;-17609.17;105988;1257;73996;-48
2024/03/26 10:27:17;;;;;;;10.00;6.90;;;;;;;-147.86;100.00;-17609.17;105902;1256;61534;-47
2024/03/26 10:29:44;;;;;;;9.70;6.80;;;;;;;-147.86;100.00;-17609.17;105976;1254;61328;-46
2024/03/26 10:32:13;;;;;;;8.00;6.60;;;;;;;-147.86;100.00;-17609.17;105862;1252;75009;-49
2024/03/26 10:34:41;;;;;;;8.20;6.50;;;;;;;-147.86;100.00;-17609.17;105895;1256;66746;-49
2024/03/26 10:37:09;;;;;;;9.80;6.90;;;;;;;-147.86;100.00;-17609.17;105920;1254;73894;-47
2024/03/26 10:39:37;;;;;;;14.40;7.00;;;;;;;-147.86;100.00;-17607.72;105899;1256;61254;-49
2024/03/26 10:42:03;;;;;;;9.60;7.10;;;;;;;-147.86;100.00;-17608.59;105920;1254;61342;-46
2024/03/26 10:44:31;;;;;;;14.00;7.30;;;;;;;-147.86;100.00;-17609.17;105924;1257;75913;-47
2024/03/26 10:46:58;;;;;;;11.40;8.00;;;;;;;-147.86;100.00;-17609.17;105853;1257;66730;-47
2024/03/26 10:49:26;;;;;;;9.00;6.60;;;;;;;-147.86;100.00;-17609.17;105960;1254;73963;-46